Time;durP1;ratioP1;P1;durP2;ratioP2;P2;SDS_P1;SDS_P2;PMS_P1;PMS_P2;Temp;Humidity;BMP_temperature;BMP_pressure;BME280_temperature;BME280_humidity;BME280_pressure;Samples;Min_cycle;Max_cycle;Signal;HPM_P1;HPM_P2
2022/03/23 00:02:11;;;;;;;75.05;48.90;;;;;;;;;;4787653;30;20051;-75
2022/03/23 00:04:38;;;;;;;74.30;47.42;;;;;;;;;;4787526;29;20636;-76
2022/03/23 00:07:04;;;;;;;73.68;47.80;;;;;;;;;;4787642;29;20059;-76
2022/03/23 00:09:30;;;;;;;70.32;47.42;;;;;;;;;;4786379;30;20087;-76
2022/03/23 00:11:56;;;;;;;72.95;47.50;;;;;;;;;;4788595;29;20067;-75
2022/03/23 00:14:23;;;;;;;73.30;48.50;;;;;;;;;;4837886;29;20053;-76
2022/03/23 00:16:49;;;;;;;76.30;48.95;;;;;;;;;;4837934;29;20050;-76
2022/03/23 00:19:19;;;;;;;73.35;47.08;;;;;;;;;;4823921;29;20051;-76
2022/03/23 00:21:45;;;;;;;76.57;49.40;;;;;;;;;;4807368;29;20042;-76
2022/03/23 00:24:11;;;;;;;77.72;50.25;;;;;;;;;;4824141;29;20061;-76
2022/03/23 00:26:37;;;;;;;72.97;48.85;;;;;;;;;;4823749;29;20096;-76
2022/03/23 00:29:05;;;;;;;71.93;46.65;;;;;;;;;;4837836;29;20057;-76
2022/03/23 00:31:31;;;;;;;74.90;49.40;;;;;;;;;;4823732;29;20054;-76
2022/03/23 00:33:57;;;;;;;71.60;46.13;;;;;;;;;;4837730;29;20084;-76
2022/03/23 00:36:24;;;;;;;72.25;47.42;;;;;;;;;;4824267;29;20062;-76
2022/03/23 00:38:53;;;;;;;75.28;48.20;;;;;;;;;;4825113;29;20116;-76
2022/03/23 00:41:20;;;;;;;73.88;48.42;;;;;;;;;;4824133;29;20097;-76
2022/03/23 00:43:46;;;;;;;79.25;48.53;;;;;;;;;;4824041;29;20054;-75
2022/03/23 00:46:13;;;;;;;73.75;48.35;;;;;;;;;;4838143;29;20137;-75
2022/03/23 00:48:40;;;;;;;75.03;47.90;;;;;;;;;;4826927;29;20058;-76
2022/03/23 00:51:06;;;;;;;74.38;47.67;;;;;;;;;;4827753;29;20054;-76
2022/03/23 00:53:32;;;;;;;75.05;46.83;;;;;;;;;;4827073;29;20054;-76
2022/03/23 00:55:58;;;;;;;73.05;45.13;;;;;;;;;;4811428;29;20082;-76
2022/03/23 00:58:24;;;;;;;71.00;46.80;;;;;;;;;;4795769;29;20141;-76
2022/03/23 01:00:50;;;;;;;80.88;47.38;;;;;;;;;;4810653;29;20086;-76
2022/03/23 01:03:16;;;;;;;72.20;46.45;;;;;;;;;;4810292;29;20101;-76
2022/03/23 01:05:42;;;;;;;76.43;49.88;;;;;;;;;;4826471;29;20053;-76
2022/03/23 01:08:09;;;;;;;81.80;47.88;;;;;;;;;;4840913;29;20476;-76
2022/03/23 01:10:36;;;;;;;78.00;49.80;;;;;;;;;;4826318;29;20121;-76
2022/03/23 01:13:02;;;;;;;;;;;;;;;;;;4825139;29;20153;-76
2022/03/23 01:15:29;;;;;;;70.67;48.53;;;;;;;;;;4825944;29;19996;-77
2022/03/23 01:17:55;;;;;;;73.90;46.38;;;;;;;;;;4826536;29;20114;-76
2022/03/23 01:20:22;;;;;;;72.53;48.30;;;;;;;;;;4825934;29;20500;-76
2022/03/23 01:22:50;;;;;;;79.65;49.22;;;;;;;;;;4840474;29;20066;-76
2022/03/23 01:25:16;;;;;;;77.95;50.08;;;;;;;;;;4826310;29;20078;-76
2022/03/23 01:27:43;;;;;;;76.70;48.50;;;;;;;;;;4825951;29;20385;-76
2022/03/23 01:30:11;;;;;;;78.63;48.83;;;;;;;;;;4825077;29;20060;-76
2022/03/23 01:32:38;;;;;;;76.20;49.70;;;;;;;;;;4840233;29;20089;-77
2022/03/23 01:35:05;;;;;;;;;;;;;;;;;;4826063;29;20519;-76
2022/03/23 01:37:31;;;;;;;76.38;49.95;;;;;;;;;;4826521;29;19931;-76
2022/03/23 01:39:57;;;;;;;83.35;51.95;;;;;;;;;;4825486;29;20080;-76
2022/03/23 01:42:24;;;;;;;79.57;50.88;;;;;;;;;;4826651;29;20077;-77
2022/03/23 01:44:50;;;;;;;87.75;53.47;;;;;;;;;;4825846;29;20134;-76
2022/03/23 01:47:19;;;;;;;78.68;50.50;;;;;;;;;;4825838;29;20141;-77
2022/03/23 01:49:46;;;;;;;80.40;51.78;;;;;;;;;;4825882;29;20536;-77
2022/03/23 01:52:14;;;;;;;77.75;51.88;;;;;;;;;;4825563;29;20481;-76
2022/03/23 01:54:41;;;;;;;79.95;51.30;;;;;;;;;;4825659;29;20046;-77
2022/03/23 01:57:08;;;;;;;78.53;51.92;;;;;;;;;;4826211;29;20092;-76
2022/03/23 01:59:35;;;;;;;78.00;51.72;;;;;;;;;;4825726;29;20054;-77
2022/03/23 02:02:03;;;;;;;78.43;51.10;;;;;;;;;;4825803;29;20058;-77
2022/03/23 02:04:29;;;;;;;86.10;55.38;;;;;;;;;;4839772;29;20057;-77
2022/03/23 02:06:55;;;;;;;84.45;51.83;;;;;;;;;;4825643;29;20054;-77
2022/03/23 02:09:22;;;;;;;79.13;51.03;;;;;;;;;;4825906;29;20475;-76
2022/03/23 02:11:49;;;;;;;78.20;51.58;;;;;;;;;;4824985;29;20061;-77
2022/03/23 02:14:15;;;;;;;82.20;52.88;;;;;;;;;;4839045;29;20111;-76
2022/03/23 02:16:41;;;;;;;;;;;;;;;;;;4824715;29;20050;-77
2022/03/23 02:19:07;;;;;;;80.53;52.53;;;;;;;;;;4824110;29;20019;-76
2022/03/23 02:21:34;;;;;;;82.05;52.15;;;;;;;;;;4839282;29;20082;-76
2022/03/23 02:24:00;;;;;;;85.50;54.50;;;;;;;;;;4825247;29;20159;-77
2022/03/23 02:26:27;;;;;;;88.07;53.38;;;;;;;;;;4825761;29;20046;-77
2022/03/23 02:28:55;;;;;;;81.35;52.50;;;;;;;;;;4825193;29;20058;-77
2022/03/23 02:31:21;;;;;;;86.90;55.83;;;;;;;;;;4824631;29;20107;-77
2022/03/23 02:33:47;;;;;;;84.10;53.63;;;;;;;;;;4824911;29;20146;-77
2022/03/23 02:36:13;;;;;;;82.03;52.88;;;;;;;;;;4839434;29;20058;-76
2022/03/23 02:38:39;;;;;;;78.38;51.90;;;;;;;;;;4808815;29;20058;-77
2022/03/23 02:41:05;;;;;;;83.03;53.80;;;;;;;;;;4825494;29;20081;-77
2022/03/23 02:43:33;;;;;;;83.32;52.67;;;;;;;;;;4825111;29;20054;-76
2022/03/23 02:45:59;;;;;;;85.82;55.13;;;;;;;;;;4808703;29;20058;-77
2022/03/23 02:48:25;;;;;;;75.43;49.72;;;;;;;;;;4824964;29;20054;-77
2022/03/23 02:50:51;;;;;;;79.30;53.20;;;;;;;;;;4824848;29;20058;-77
2022/03/23 03:02:06;;;;;;;82.68;54.13;;;;;;;;;;4825096;29;20054;-76
2022/03/23 03:04:32;;;;;;;80.72;53.28;;;;;;;;;;4838855;29;20407;-77
2022/03/23 03:06:59;;;;;;;74.20;52.55;;;;;;;;;;4824678;29;20050;-76
2022/03/23 03:09:25;;;;;;;82.00;52.97;;;;;;;;;;4837876;29;20050;-77
2022/03/23 03:11:51;;;;;;;78.60;51.90;;;;;;;;;;4838656;29;20054;-77
2022/03/23 03:14:17;;;;;;;;;;;;;;;;;;4838608;29;20062;-78
2022/03/23 03:16:43;;;;;;;85.97;54.80;;;;;;;;;;4824228;29;19933;-77
2022/03/23 03:19:11;;;;;;;78.40;52.67;;;;;;;;;;4825026;29;20176;-77
2022/03/23 03:21:40;;;;;;;81.65;51.95;;;;;;;;;;4824828;29;20444;-77
2022/03/23 03:24:07;;;;;;;80.25;52.92;;;;;;;;;;4838375;29;20065;-77
2022/03/23 03:26:33;;;;;;;84.40;54.88;;;;;;;;;;4824531;29;20479;-78
2022/03/23 03:29:00;;;;;;;81.00;55.00;;;;;;;;;;4824452;29;20053;-77
2022/03/23 03:31:26;;;;;;;83.88;54.50;;;;;;;;;;4824402;29;20096;-79
2022/03/23 03:33:52;;;;;;;86.45;53.08;;;;;;;;;;4807683;29;20065;-77
2022/03/23 03:36:18;;;;;;;80.30;54.13;;;;;;;;;;4823786;29;20054;-77
2022/03/23 03:38:44;;;;;;;82.43;52.45;;;;;;;;;;4839302;29;20054;-77
2022/03/23 03:41:11;;;;;;;79.00;52.03;;;;;;;;;;4825092;29;20471;-77
2022/03/23 03:43:37;;;;;;;79.95;54.30;;;;;;;;;;4824219;29;20133;-78
2022/03/23 03:46:06;;;;;;;81.07;53.83;;;;;;;;;;4822814;29;20058;-77
2022/03/23 03:48:32;;;;;;;88.50;52.47;;;;;;;;;;4824208;29;20062;-78
2022/03/23 03:51:00;;;;;;;81.15;53.03;;;;;;;;;;4838075;29;20070;-77
2022/03/23 03:53:26;;;;;;;83.13;53.90;;;;;;;;;;4808253;29;20058;-78
2022/03/23 03:55:52;;;;;;;81.55;53.13;;;;;;;;;;4792607;29;20046;-77
2022/03/23 03:58:20;;;;;;;85.38;56.50;;;;;;;;;;4824419;29;20110;-77
2022/03/23 04:00:46;;;;;;;87.72;54.95;;;;;;;;;;4807711;29;20054;-77
2022/03/23 04:03:12;;;;;;;83.97;54.28;;;;;;;;;;4823974;29;20639;-77
2022/03/23 04:05:38;;;;;;;;;;;;;;;;;;4824403;29;20050;-78
2022/03/23 04:08:05;;;;;;;84.85;56.28;;;;;;;;;;4824182;29;19996;-77
2022/03/23 04:10:33;;;;;;;86.32;56.50;;;;;;;;;;4823175;29;20138;-78
2022/03/23 04:12:59;;;;;;;86.47;58.20;;;;;;;;;;4824137;29;20070;-77
2022/03/23 04:15:26;;;;;;;87.20;56.28;;;;;;;;;;4838062;29;20408;-77
2022/03/23 04:17:53;;;;;;;91.82;58.80;;;;;;;;;;4824015;29;20053;-77
2022/03/23 04:20:19;;;;;;;94.05;58.78;;;;;;;;;;4807638;29;20046;-77
2022/03/23 04:22:45;;;;;;;90.60;59.22;;;;;;;;;;4825820;29;20514;-77
2022/03/23 04:25:12;;;;;;;83.40;58.50;;;;;;;;;;4841276;29;20057;-77
2022/03/23 04:27:45;;;;;;;86.38;57.05;;;;;;;;;;4841840;29;20058;-77
2022/03/23 04:30:16;;;;;;;90.13;57.97;;;;;;;;;;4827358;29;20050;-76
2022/03/23 04:32:49;;;;;;;92.43;57.42;;;;;;;;;;4827828;29;20054;-77
2022/03/23 04:35:17;;;;;;;85.88;56.67;;;;;;;;;;4827419;29;20104;-78
2022/03/23 04:37:43;;;;;;;88.95;60.17;;;;;;;;;;4841083;29;20492;-77
2022/03/23 04:40:11;;;;;;;93.10;58.15;;;;;;;;;;4826888;29;20123;-77
2022/03/23 04:42:38;;;;;;;95.57;60.17;;;;;;;;;;4840254;29;20058;-77
2022/03/23 04:45:05;;;;;;;95.13;58.80;;;;;;;;;;4841000;29;20135;-77
2022/03/23 04:47:33;;;;;;;89.15;58.85;;;;;;;;;;4827624;29;20373;-77
2022/03/23 04:49:59;;;;;;;89.60;60.83;;;;;;;;;;4827068;29;20062;-76
2022/03/23 04:52:25;;;;;;;90.70;59.45;;;;;;;;;;4841449;29;20136;-77
2022/03/23 04:54:56;;;;;;;94.20;61.90;;;;;;;;;;4840975;29;20050;-77
2022/03/23 04:57:22;;;;;;;101.82;62.67;;;;;;;;;;4827151;29;20058;-77
2022/03/23 04:59:49;;;;;;;94.00;60.28;;;;;;;;;;4841149;29;20153;-77
2022/03/23 05:02:15;;;;;;;95.72;61.75;;;;;;;;;;4840879;29;20056;-78
2022/03/23 05:04:41;;;;;;;97.75;63.67;;;;;;;;;;4841405;29;20057;-77
2022/03/23 05:07:07;;;;;;;95.72;61.17;;;;;;;;;;4841010;29;20111;-77
2022/03/23 05:09:33;;;;;;;96.47;63.67;;;;;;;;;;4826710;29;20059;-77
2022/03/23 05:11:59;;;;;;;97.28;62.58;;;;;;;;;;4810265;29;20046;-77
2022/03/23 05:14:25;;;;;;;102.15;64.45;;;;;;;;;;4826289;29;20111;-77
2022/03/23 05:16:51;;;;;;;99.63;64.53;;;;;;;;;;4840003;29;20388;-77
2022/03/23 05:19:17;;;;;;;101.95;60.65;;;;;;;;;;4824247;29;20062;-78
2022/03/23 05:21:43;;;;;;;101.72;64.00;;;;;;;;;;4825738;29;20058;-77
2022/03/23 05:24:13;;;;;;;101.47;63.10;;;;;;;;;;4825044;29;20466;-77
2022/03/23 05:26:39;;;;;;;102.90;63.05;;;;;;;;;;4825243;29;20494;-77
2022/03/23 05:29:05;;;;;;;96.80;65.53;;;;;;;;;;4824896;29;20384;-77
2022/03/23 05:31:31;;;;;;;108.10;66.28;;;;;;;;;;4825638;29;20058;-77
2022/03/23 05:33:58;;;;;;;101.75;63.03;;;;;;;;;;4824644;29;20051;-77
2022/03/23 05:36:24;;;;;;;104.35;66.00;;;;;;;;;;4824675;29;20098;-77
2022/03/23 05:38:51;;;;;;;93.20;60.85;;;;;;;;;;4824595;29;20077;-77
2022/03/23 05:41:17;;;;;;;;;;;;;;;;;;4808557;29;20058;-76
2022/03/23 05:43:44;;;;;;;96.40;60.65;;;;;;;;;;4808401;29;19985;-76
2022/03/23 05:46:11;;;;;;;101.13;63.95;;;;;;;;;;4807874;29;20058;-76
2022/03/23 05:48:37;;;;;;;99.45;62.28;;;;;;;;;;4824570;29;20064;-76
2022/03/23 05:51:03;;;;;;;101.32;64.30;;;;;;;;;;4824471;29;20054;-76
2022/03/23 05:53:29;;;;;;;101.35;61.45;;;;;;;;;;4824423;29;20056;-76
2022/03/23 05:55:55;;;;;;;102.43;62.58;;;;;;;;;;4808061;29;20042;-76
2022/03/23 05:58:22;;;;;;;106.15;64.47;;;;;;;;;;4824433;29;20129;-76
2022/03/23 06:00:48;;;;;;;98.72;64.72;;;;;;;;;;4823195;29;20137;-76
2022/03/23 06:03:15;;;;;;;95.25;60.53;;;;;;;;;;4808118;29;20054;-76
2022/03/23 06:05:41;;;;;;;101.20;64.43;;;;;;;;;;4824909;29;20402;-76
2022/03/23 06:08:07;;;;;;;96.95;63.10;;;;;;;;;;4824649;29;20153;-76
2022/03/23 06:10:34;;;;;;;103.78;65.50;;;;;;;;;;4824641;29;20063;-79
2022/03/23 06:13:00;;;;;;;98.70;63.08;;;;;;;;;;4838192;29;20058;-77
2022/03/23 06:15:26;;;;;;;98.63;63.08;;;;;;;;;;4824904;29;20062;-78
2022/03/23 06:17:53;;;;;;;99.10;61.40;;;;;;;;;;4838621;29;20392;-77
2022/03/23 06:20:19;;;;;;;100.28;61.65;;;;;;;;;;4838784;29;20192;-77
2022/03/23 06:22:45;;;;;;;94.75;60.75;;;;;;;;;;4824372;29;20058;-77
2022/03/23 06:25:13;;;;;;;94.28;61.40;;;;;;;;;;4824292;29;20064;-76
2022/03/23 06:27:39;;;;;;;99.50;64.18;;;;;;;;;;4807531;29;20042;-77
2022/03/23 06:30:06;;;;;;;97.63;63.95;;;;;;;;;;4824030;29;20484;-78
2022/03/23 06:32:33;;;;;;;97.10;63.30;;;;;;;;;;4837958;29;20077;-77
2022/03/23 06:35:00;;;;;;;102.20;63.90;;;;;;;;;;4823097;29;20050;-77
2022/03/23 06:37:30;;;;;;;97.93;60.50;;;;;;;;;;4808331;29;20054;-77
2022/03/23 06:39:57;;;;;;;99.65;62.78;;;;;;;;;;4837591;29;20553;-77
2022/03/23 06:42:24;;;;;;;94.85;60.17;;;;;;;;;;4838103;29;20158;-77
2022/03/23 06:44:50;;;;;;;96.10;62.42;;;;;;;;;;4821843;29;20448;-77
2022/03/23 06:47:16;;;;;;;;;;;;;;;;;;4837585;29;20098;-77
2022/03/23 06:49:45;;;;;;;108.10;61.08;;;;;;;;;;4823513;29;19925;-78
2022/03/23 06:52:12;;;;;;;102.13;62.35;;;;;;;;;;4807364;29;20046;-77
2022/03/23 06:54:38;;;;;;;96.78;61.30;;;;;;;;;;4823232;29;20053;-79
2022/03/23 06:57:04;;;;;;;97.53;61.50;;;;;;;;;;4823419;29;20432;-80
2022/03/23 06:59:30;;;;;;;104.60;63.67;;;;;;;;;;4792382;29;20120;-79
2022/03/23 07:01:56;;;;;;;100.35;63.58;;;;;;;;;;4823852;29;20100;-79
2022/03/23 07:04:24;;;;;;;98.60;61.28;;;;;;;;;;4837943;29;20101;-79
2022/03/23 07:06:51;;;;;;;106.65;65.45;;;;;;;;;;4823573;29;20201;-79
2022/03/23 07:09:33;;;;;;;95.47;60.08;;;;;;;;;;4806849;29;20050;-77
2022/03/23 07:12:00;;;;;;;92.03;60.60;;;;;;;;;;4824093;29;20373;-79
2022/03/23 07:14:27;;;;;;;87.85;57.53;;;;;;;;;;4822831;29;20142;-79
2022/03/23 07:16:54;;;;;;;87.75;53.15;;;;;;;;;;4823822;29;20171;-80
2022/03/23 07:19:22;;;;;;;92.70;58.15;;;;;;;;;;4823658;29;20441;-79
2022/03/23 07:21:48;;;;;;;79.70;50.08;;;;;;;;;;4808144;29;20370;-79
2022/03/23 07:24:18;;;;;;;84.40;50.85;;;;;;;;;;4837569;29;20057;-73
2022/03/23 07:26:44;;;;;;;79.43;48.42;;;;;;;;;;4824263;29;20054;-79
2022/03/23 07:29:10;;;;;;;;;;;;;;;;;;4824618;29;20141;-80
2022/03/23 07:31:36;;;;;;;81.72;50.33;;;;;;;;;;4822898;29;19925;-81
2022/03/23 07:34:03;;;;;;;79.40;48.00;;;;;;;;;;4806947;29;20046;-79
2022/03/23 07:36:30;;;;;;;78.25;47.40;;;;;;;;;;4792529;29;20111;-80
2022/03/23 07:39:05;;;;;;;76.53;46.45;;;;;;;;;;4836622;29;20053;-78
2022/03/23 07:41:31;;;;;;;77.82;46.85;;;;;;;;;;4791710;29;20150;-78
2022/03/23 07:43:57;;;;;;;66.95;45.75;;;;;;;;;;4823319;29;20140;-78
2022/03/23 07:46:23;;;;;;;67.55;44.50;;;;;;;;;;4822635;29;20207;-80
2022/03/23 07:48:49;;;;;;;;;;;;;;;;;;4791946;29;20097;-79
2022/03/23 07:51:15;;;;;;;72.95;45.03;;;;;;;;;;4822778;29;20025;-79
2022/03/23 07:53:42;;;;;;;70.40;42.90;;;;;;;;;;4822795;29;20047;-77
2022/03/23 07:56:08;;;;;;;74.97;43.22;;;;;;;;;;4824168;29;20086;-80
2022/03/23 07:58:34;;;;;;;67.40;40.88;;;;;;;;;;4826352;29;20050;-70
2022/03/23 08:01:00;;;;;;;69.20;43.08;;;;;;;;;;4810364;29;20059;-74
2022/03/23 08:03:26;;;;;;;71.43;40.78;;;;;;;;;;4840678;29;20107;-74
2022/03/23 08:05:52;;;;;;;75.68;41.78;;;;;;;;;;4840376;29;20058;-80
2022/03/23 08:08:19;;;;;;;63.45;37.72;;;;;;;;;;4826778;29;20058;-79
2022/03/23 08:10:45;;;;;;;68.43;40.05;;;;;;;;;;4825375;29;20119;-79
2022/03/23 08:13:12;;;;;;;60.08;38.40;;;;;;;;;;4826131;29;20081;-76
2022/03/23 08:15:39;;;;;;;63.80;37.83;;;;;;;;;;4826119;29;20142;-78
2022/03/23 08:18:05;;;;;;;60.08;36.58;;;;;;;;;;4840838;29;20042;-78
2022/03/23 08:20:37;;;;;;;;;;;;;;;;;;4825217;29;20066;-78
2022/03/23 08:23:07;;;;;;;54.85;35.35;;;;;;;;;;4825503;29;19925;-72
2022/03/23 08:25:34;;;;;;;60.38;35.88;;;;;;;;;;4825429;29;20054;-73
2022/03/23 08:28:00;;;;;;;;;;;;;;;;;;4825870;29;20054;-77
2022/03/23 08:30:27;;;;;;;50.60;32.75;;;;;;;;;;4825733;29;20306;-78
2022/03/23 08:32:53;;;;;;;51.13;33.60;;;;;;;;;;4825723;29;20092;-77
2022/03/23 08:35:19;;;;;;;56.60;34.38;;;;;;;;;;4839422;29;20054;-74
2022/03/23 08:37:46;;;;;;;52.17;33.58;;;;;;;;;;4839682;29;20054;-79
2022/03/23 08:40:12;;;;;;;53.00;34.03;;;;;;;;;;4825887;29;20086;-73
2022/03/23 08:42:39;;;;;;;58.47;35.72;;;;;;;;;;4825233;29;20046;-78
2022/03/23 08:45:05;;;;;;;64.63;35.95;;;;;;;;;;4839838;29;20054;-78
2022/03/23 08:47:31;;;;;;;62.50;38.58;;;;;;;;;;4825015;29;20137;-74
2022/03/23 08:49:58;;;;;;;61.70;35.83;;;;;;;;;;4825019;29;20053;-76
2022/03/23 08:52:25;;;;;;;58.38;35.50;;;;;;;;;;4824923;29;20115;-78
2022/03/23 08:54:52;;;;;;;55.50;35.70;;;;;;;;;;4808775;29;20083;-78
2022/03/23 08:57:18;;;;;;;53.25;34.20;;;;;;;;;;4839633;29;20373;-76
2022/03/23 08:59:44;;;;;;;53.58;33.67;;;;;;;;;;4824755;29;20061;-78
2022/03/23 09:02:13;;;;;;;53.40;33.90;;;;;;;;;;4838517;29;20133;-77
2022/03/23 09:04:39;;;;;;;49.97;33.78;;;;;;;;;;4839716;29;20145;-75
2022/03/23 09:07:05;;;;;;;50.40;32.22;;;;;;;;;;4824373;29;20441;-74
2022/03/23 09:09:31;;;;;;;56.85;33.72;;;;;;;;;;4825451;29;20058;-79
2022/03/23 09:11:57;;;;;;;61.17;33.63;;;;;;;;;;4825739;29;20054;-81
2022/03/23 09:14:23;;;;;;;58.60;33.42;;;;;;;;;;4838634;29;20059;-80
2022/03/23 09:16:49;;;;;;;54.03;33.55;;;;;;;;;;4824686;29;20102;-78
2022/03/23 09:19:20;;;;;;;51.30;33.97;;;;;;;;;;4838979;29;20057;-75
2022/03/23 09:21:50;;;;;;;52.15;32.60;;;;;;;;;;4809203;29;20050;-76
2022/03/23 09:24:19;;;;;;;46.35;31.35;;;;;;;;;;4838716;29;20137;-77
2022/03/23 09:26:45;;;;;;;54.85;32.40;;;;;;;;;;4824854;29;20058;-79
2022/03/23 09:29:14;;;;;;;46.35;29.83;;;;;;;;;;4824209;29;20065;-77
2022/03/23 09:31:40;;;;;;;54.05;32.13;;;;;;;;;;4838777;29;20502;-77
2022/03/23 09:34:09;;;;;;;50.63;33.05;;;;;;;;;;4825098;29;20054;-80
2022/03/23 09:39:20;;;;;;;48.05;30.13;;;;;;;;;;4825456;29;20129;-79
2022/03/23 09:41:48;;;;;;;51.00;29.65;;;;;;;;;;4838487;29;20199;-79
2022/03/23 09:44:14;;;;;;;45.03;29.90;;;;;;;;;;4838842;29;20090;-78
2022/03/23 09:46:40;;;;;;;;;;;;;;;;;;4824604;29;20061;-78
2022/03/23 09:49:09;;;;;;;52.08;28.85;;;;;;;;;;4807967;29;19975;-77
2022/03/23 09:51:39;;;;;;;41.22;27.40;;;;;;;;;;4838129;29;20449;-77
2022/03/23 09:54:05;;;;;;;46.53;28.30;;;;;;;;;;4824603;29;20073;-78
2022/03/23 09:56:35;;;;;;;47.35;27.77;;;;;;;;;;4794281;29;20053;-77
2022/03/23 09:59:02;;;;;;;47.70;28.30;;;;;;;;;;4823888;29;20134;-76
2022/03/23 10:01:28;;;;;;;44.10;28.10;;;;;;;;;;4838285;29;20441;-74
2022/03/23 10:04:19;;;;;;;45.40;28.50;;;;;;;;;;4837869;29;20114;-73
2022/03/23 10:07:03;;;;;;;50.10;29.08;;;;;;;;;;4823528;29;20046;-72
2022/03/23 10:09:45;;;;;;;49.05;28.02;;;;;;;;;;4838473;29;20111;-75
2022/03/23 10:12:20;;;;;;;48.15;28.88;;;;;;;;;;4823661;29;20065;-74
2022/03/23 10:15:08;;;;;;;41.67;26.40;;;;;;;;;;4807150;29;20104;-79
2022/03/23 10:17:40;;;;;;;44.20;27.48;;;;;;;;;;4837946;29;20121;-79
2022/03/23 10:20:06;;;;;;;41.78;25.73;;;;;;;;;;4823567;29;20066;-79
2022/03/23 10:22:32;;;;;;;41.22;26.17;;;;;;;;;;4837029;29;20072;-75
2022/03/23 10:25:08;;;;;;;39.58;26.63;;;;;;;;;;4807364;29;20050;-79
2022/03/23 10:27:34;;;;;;;39.92;25.80;;;;;;;;;;4807344;29;20079;-74
2022/03/23 10:30:01;;;;;;;38.40;24.42;;;;;;;;;;4837601;29;20050;-80
2022/03/23 10:32:34;;;;;;;38.17;24.75;;;;;;;;;;4807356;29;20491;-76
2022/03/23 10:35:00;;;;;;;44.17;25.17;;;;;;;;;;4806935;29;20064;-77
2022/03/23 10:37:27;;;;;;;41.20;25.85;;;;;;;;;;4823560;29;20557;-81
2022/03/23 10:39:55;;;;;;;39.70;25.98;;;;;;;;;;4839005;29;20590;-78
2022/03/23 10:42:22;;;;;;;38.85;25.92;;;;;;;;;;4830383;29;20046;-76
2022/03/23 10:44:49;;;;;;;38.38;24.70;;;;;;;;;;4825082;29;20097;-75
2022/03/23 10:47:22;;;;;;;31.67;21.38;;;;;;;;;;4823349;29;20181;-76
2022/03/23 10:49:48;;;;;;;37.53;23.15;;;;;;;;;;4823046;29;20058;-78
2022/03/23 10:52:14;;;;;;;;;;;;;;;;;;4838210;29;20054;-75
2022/03/23 10:54:41;;;;;;;36.53;22.02;;;;;;;;;;4821498;29;20440;-76
2022/03/23 10:57:07;;;;;;;36.42;21.98;;;;;;;;;;4836694;29;20046;-77
2022/03/23 10:59:34;;;;;;;;;;;;;;;;;;4822672;29;20342;-79
2022/03/23 11:02:00;;;;;;;38.15;23.38;;;;;;;;;;4806639;29;20255;-73
2022/03/23 11:04:30;;;;;;;40.35;22.92;;;;;;;;;;4823329;29;20458;-77
2022/03/23 11:07:00;;;;;;;34.30;22.60;;;;;;;;;;4807139;29;20506;-76
2022/03/23 11:18:05;;;;;;;37.33;21.30;;;;;;;;;;4822881;29;20090;-76
2022/03/23 11:20:41;;;;;;;39.85;22.52;;;;;;;;;;4823208;29;20050;-78
2022/03/23 11:23:20;;;;;;;38.55;22.92;;;;;;;;;;4822822;29;20058;-80
2022/03/23 11:25:47;;;;;;;36.30;22.08;;;;;;;;;;4806807;29;20054;-77
2022/03/23 11:28:15;;;;;;;34.38;19.30;;;;;;;;;;4837725;29;20061;-80
2022/03/23 11:30:41;;;;;;;36.85;18.23;;;;;;;;;;4836775;29;20065;-78
2022/03/23 11:33:08;;;;;;;32.13;20.02;;;;;;;;;;4823193;29;20062;-78
2022/03/23 11:35:35;;;;;;;31.90;17.45;;;;;;;;;;4822724;29;20106;-79
2022/03/23 11:38:02;;;;;;;35.05;19.35;;;;;;;;;;4836416;29;20112;-79
2022/03/23 11:40:29;;;;;;;34.10;17.80;;;;;;;;;;4791272;29;20058;-79
2022/03/23 11:42:55;;;;;;;32.40;15.80;;;;;;;;;;4823751;29;20050;-77
2022/03/23 11:45:24;;;;;;;31.33;15.57;;;;;;;;;;4837158;29;20051;-76
2022/03/23 11:48:01;;;;;;;31.75;18.55;;;;;;;;;;4836077;29;20198;-79
2022/03/23 11:50:42;;;;;;;31.27;17.58;;;;;;;;;;4809220;29;20066;-77
2022/03/23 11:53:27;;;;;;;32.65;15.48;;;;;;;;;;4808793;29;20066;-76
2022/03/23 11:55:54;;;;;;;33.50;15.65;;;;;;;;;;4822605;29;20133;-80
2022/03/23 11:58:21;;;;;;;30.58;15.07;;;;;;;;;;4837285;29;20468;-75
2022/03/23 12:00:51;;;;;;;29.63;13.82;;;;;;;;;;4822866;29;20050;-79
2022/03/23 12:03:36;;;;;;;37.10;14.27;;;;;;;;;;4822500;29;20054;-79
2022/03/23 12:06:11;;;;;;;32.30;13.77;;;;;;;;;;4836842;29;20050;-77
2022/03/23 12:08:46;;;;;;;30.55;14.10;;;;;;;;;;4807049;29;20372;-80
2022/03/23 12:11:31;;;;;;;33.33;14.10;;;;;;;;;;4823870;29;20438;-77
2022/03/23 12:13:58;;;;;;;29.50;13.27;;;;;;;;;;4822430;29;20070;-77
2022/03/23 12:16:43;;;;;;;25.33;9.18;;;;;;;;;;4822008;29;20058;-72
2022/03/23 12:19:10;;;;;;;26.00;11.35;;;;;;;;;;4822381;29;20120;-73
2022/03/23 12:21:56;;;;;;;32.15;14.52;;;;;;;;;;4821181;29;20065;-76
2022/03/23 12:24:28;;;;;;;32.17;13.50;;;;;;;;;;4822339;29;20077;-76
2022/03/23 12:26:56;;;;;;;39.88;20.60;;;;;;;;;;4806242;29;20062;-78
2022/03/23 12:29:25;;;;;;;28.52;15.02;;;;;;;;;;4791782;29;20133;-75
2022/03/23 12:32:02;;;;;;;32.08;16.27;;;;;;;;;;4806567;29;20484;-79
2022/03/23 12:34:28;;;;;;;28.80;15.40;;;;;;;;;;4836193;29;20069;-76
2022/03/23 12:36:57;;;;;;;;;;;;;;;;;;4822344;29;20060;-75
2022/03/23 12:39:31;;;;;;;37.22;16.05;;;;;;;;;;4821132;29;19932;-79
2022/03/23 12:41:58;;;;;;;33.45;16.38;;;;;;;;;;4836257;29;20138;-78
2022/03/23 12:44:29;;;;;;;31.50;14.05;;;;;;;;;;4825690;29;20103;-78
2022/03/23 12:47:16;;;;;;;30.83;12.55;;;;;;;;;;4840071;29;20217;-78
2022/03/23 12:58:09;;;;;;;33.92;9.57;;;;;;;;;;4808900;29;20192;-75
2022/03/23 13:00:42;;;;;;;25.17;9.23;;;;;;;;;;4825325;29;20057;-77
2022/03/23 13:03:08;;;;;;;26.08;10.20;;;;;;;;;;4839444;29;20129;-78
2022/03/23 13:05:35;;;;;;;30.52;9.90;;;;;;;;;;4825067;29;20063;-73
2022/03/23 13:08:01;;;;;;;28.48;8.15;;;;;;;;;;4824555;29;20062;-76
2022/03/23 13:10:27;;;;;;;;;;;;;;;;;;4825851;29;20137;-73
2022/03/23 13:13:09;;;;;;;25.55;9.13;;;;;;;;;;4824336;29;20369;-74
2022/03/23 13:15:35;;;;;;;24.60;10.32;;;;;;;;;;4787733;30;20051;-77
2022/03/23 13:18:01;;;;;;;28.27;9.45;;;;;;;;;;4788848;30;20051;-76
2022/03/23 13:20:27;;;;;;;;;;;;;;;;;;4773076;30;20063;-76
2022/03/23 13:22:53;;;;;;;31.30;8.75;;;;;;;;;;4788098;29;20278;-76
2022/03/23 13:25:20;;;;;;;26.63;8.75;;;;;;;;;;4787641;30;20051;-73
2022/03/23 13:27:46;;;;;;;;;;;;;;;;;;4789044;30;20496;-75
2022/03/23 13:30:15;;;;;;;34.70;8.90;;;;;;;;;;4788491;30;20367;-77
2022/03/23 13:32:50;;;;;;;28.50;7.72;;;;;;;;;;4787142;30;20379;-74
2022/03/23 13:35:20;;;;;;;26.15;8.55;;;;;;;;;;4772811;30;20052;-73
2022/03/23 13:37:55;;;;;;;32.03;10.50;;;;;;;;;;4772406;30;20062;-75
2022/03/23 13:40:25;;;;;;;29.50;12.20;;;;;;;;;;4787042;30;20511;-79
2022/03/23 13:45:38;;;;;;;34.83;12.07;;;;;;;;;;4787470;30;20077;-76
2022/03/23 13:48:08;;;;;;;33.83;11.90;;;;;;;;;;4788066;30;20184;-78
2022/03/23 13:50:34;;;;;;;29.50;11.32;;;;;;;;;;4787499;30;20142;-76
2022/03/23 13:53:00;;;;;;;31.90;11.95;;;;;;;;;;4771789;29;20055;-75
2022/03/23 13:55:26;;;;;;;31.65;12.15;;;;;;;;;;4786578;30;20043;-75
2022/03/23 13:57:52;;;;;;;23.55;10.63;;;;;;;;;;4788525;30;20047;-79
2022/03/23 14:00:27;;;;;;;34.00;11.82;;;;;;;;;;4787543;30;20055;-82
2022/03/23 14:02:54;;;;;;;27.15;11.50;;;;;;;;;;4788875;29;20135;-76
2022/03/23 14:05:20;;;;;;;26.85;11.30;;;;;;;;;;4787446;30;20143;-76
2022/03/23 14:07:47;;;;;;;28.63;12.43;;;;;;;;;;4788953;30;20062;-80
2022/03/23 14:10:13;;;;;;;30.75;11.40;;;;;;;;;;4772153;30;20404;-77
2022/03/23 14:12:40;;;;;;;31.15;11.55;;;;;;;;;;4786828;30;20063;-76
2022/03/23 14:15:06;;;;;;;31.40;11.75;;;;;;;;;;4770838;30;20063;-75
2022/03/23 14:17:35;;;;;;;29.02;12.80;;;;;;;;;;4787215;30;20086;-78
2022/03/23 14:20:05;;;;;;;31.58;12.52;;;;;;;;;;4771946;30;20059;-76
2022/03/23 14:22:32;;;;;;;24.23;11.20;;;;;;;;;;4817367;29;20054;-70
2022/03/23 14:25:02;;;;;;;27.55;11.90;;;;;;;;;;4787634;30;20050;-79
2022/03/23 14:27:32;;;;;;;32.92;10.75;;;;;;;;;;4787905;29;20159;-78
2022/03/23 14:32:31;;;;;;;31.20;11.20;;;;;;;;;;4787055;30;20066;-79
2022/03/23 14:34:57;;;;;;;29.00;11.80;;;;;;;;;;4787497;30;20466;-76
2022/03/23 14:37:33;;;;;;;24.80;12.02;;;;;;;;;;4817020;29;20062;-78
2022/03/23 14:40:01;;;;;;;25.67;11.85;;;;;;;;;;4787940;30;20059;-75
2022/03/23 14:42:32;;;;;;;33.47;12.30;;;;;;;;;;4817184;29;20051;-78
2022/03/23 14:44:59;;;;;;;28.65;11.52;;;;;;;;;;4787323;30;20123;-75
2022/03/23 14:47:44;;;;;;;28.98;11.70;;;;;;;;;;4787173;30;20090;-77
2022/03/23 14:50:10;;;;;;;28.95;12.18;;;;;;;;;;4786265;30;20460;-77
2022/03/23 14:52:36;;;;;;;;;;;;;;;;;;4771639;30;20089;-76
2022/03/23 14:55:02;;;;;;;29.92;11.63;;;;;;;;;;4787122;30;19980;-79
2022/03/23 14:57:28;;;;;;;33.45;12.95;;;;;;;;;;4786417;30;20059;-77
2022/03/23 14:59:55;;;;;;;25.90;12.13;;;;;;;;;;4785868;30;20058;-77
2022/03/23 15:02:21;;;;;;;31.05;11.13;;;;;;;;;;4787367;29;20063;-78